sensor_id;sensor_type;location;lat;lon;timestamp;P1;durP1;ratioP1;P2;durP2;ratioP2
18499;SDS011;9379;52.134;11.576;2023-04-15T00:01:11;1.98;;;1.88;;
18499;SDS011;9379;52.134;11.576;2023-04-15T00:03:51;2.40;;;2.20;;
18499;SDS011;9379;52.134;11.576;2023-04-15T00:06:29;1.75;;;1.42;;
18499;SDS011;9379;52.134;11.576;2023-04-15T00:09:03;2.70;;;2.20;;
18499;SDS011;9379;52.134;11.576;2023-04-15T00:11:39;2.08;;;1.83;;
18499;SDS011;9379;52.134;11.576;2023-04-15T00:14:19;2.83;;;2.63;;
18499;SDS011;9379;52.134;11.576;2023-04-15T00:17:07;2.35;;;1.90;;
18499;SDS011;9379;52.134;11.576;2023-04-15T00:19:46;2.88;;;2.55;;
18499;SDS011;9379;52.134;11.576;2023-04-15T00:22:22;2.78;;;2.53;;
18499;SDS011;9379;52.134;11.576;2023-04-15T00:24:56;1.73;;;1.63;;
18499;SDS011;9379;52.134;11.576;2023-04-15T00:27:30;2.22;;;2.13;;
18499;SDS011;9379;52.134;11.576;2023-04-15T00:30:12;2.53;;;2.28;;
18499;SDS011;9379;52.134;11.576;2023-04-15T00:33:03;2.58;;;2.38;;
18499;SDS011;9379;52.134;11.576;2023-04-15T00:35:58;2.95;;;2.70;;
18499;SDS011;9379;52.134;11.576;2023-04-15T00:38:54;3.53;;;3.22;;
18499;SDS011;9379;52.134;11.576;2023-04-15T00:41:40;2.78;;;2.58;;
18499;SDS011;9379;52.134;11.576;2023-04-15T00:44:30;3.00;;;2.70;;
18499;SDS011;9379;52.134;11.576;2023-04-15T00:47:14;2.75;;;2.45;;
18499;SDS011;9379;52.134;11.576;2023-04-15T00:50:01;2.10;;;1.80;;
18499;SDS011;9379;52.134;11.576;2023-04-15T00:52:56;2.42;;;2.30;;
18499;SDS011;9379;52.134;11.576;2023-04-15T00:55:56;1.55;;;1.45;;
18499;SDS011;9379;52.134;11.576;2023-04-15T00:58:40;4.93;;;2.65;;
18499;SDS011;9379;52.134;11.576;2023-04-15T01:01:20;2.05;;;1.88;;
18499;SDS011;9379;52.134;11.576;2023-04-15T01:03:57;2.20;;;2.10;;
18499;SDS011;9379;52.134;11.576;2023-04-15T01:06:34;2.03;;;1.92;;
18499;SDS011;9379;52.134;11.576;2023-04-15T01:12:06;2.08;;;1.90;;
18499;SDS011;9379;52.134;11.576;2023-04-15T01:15:04;2.33;;;2.08;;
18499;SDS011;9379;52.134;11.576;2023-04-15T01:17:40;2.50;;;2.30;;
18499;SDS011;9379;52.134;11.576;2023-04-15T01:20:14;2.15;;;2.05;;
18499;SDS011;9379;52.134;11.576;2023-04-15T01:22:48;2.92;;;2.72;;
18499;SDS011;9379;52.134;11.576;2023-04-15T01:29:06;3.78;;;2.72;;
18499;SDS011;9379;52.134;11.576;2023-04-15T01:31:44;2.92;;;2.72;;
18499;SDS011;9379;52.134;11.576;2023-04-15T01:34:47;7.43;;;3.00;;
18499;SDS011;9379;52.134;11.576;2023-04-15T01:40:26;3.53;;;3.22;;
18499;SDS011;9379;52.134;11.576;2023-04-15T01:43:08;4.45;;;3.35;;
18499;SDS011;9379;52.134;11.576;2023-04-15T01:45:52;4.65;;;4.15;;
18499;SDS011;9379;52.134;11.576;2023-04-15T01:48:45;3.45;;;3.15;;
18499;SDS011;9379;52.134;11.576;2023-04-15T01:54:18;2.75;;;2.55;;
18499;SDS011;9379;52.134;11.576;2023-04-15T01:57:19;3.00;;;2.80;;
18499;SDS011;9379;52.134;11.576;2023-04-15T02:00:06;4.57;;;4.10;;
18499;SDS011;9379;52.134;11.576;2023-04-15T02:02:42;4.53;;;4.13;;
18499;SDS011;9379;52.134;11.576;2023-04-15T02:05:11;5.45;;;4.95;;
18499;SDS011;9379;52.134;11.576;2023-04-15T02:07:45;5.15;;;4.70;;
18499;SDS011;9379;52.134;11.576;2023-04-15T02:10:27;4.60;;;3.97;;
18499;SDS011;9379;52.134;11.576;2023-04-15T02:13:01;4.05;;;3.65;;
18499;SDS011;9379;52.134;11.576;2023-04-15T02:15:31;3.75;;;3.33;;
18499;SDS011;9379;52.134;11.576;2023-04-15T02:18:02;4.18;;;3.75;;
18499;SDS011;9379;52.134;11.576;2023-04-15T02:20:43;3.78;;;3.40;;
18499;SDS011;9379;52.134;11.576;2023-04-15T02:23:28;3.38;;;3.03;;
18499;SDS011;9379;52.134;11.576;2023-04-15T02:26:01;2.60;;;2.40;;
18499;SDS011;9379;52.134;11.576;2023-04-15T02:28:37;3.25;;;2.95;;
18499;SDS011;9379;52.134;11.576;2023-04-15T02:34:46;2.88;;;2.67;;
18499;SDS011;9379;52.134;11.576;2023-04-15T02:37:47;2.80;;;2.60;;
18499;SDS011;9379;52.134;11.576;2023-04-15T02:44:01;2.92;;;2.38;;
18499;SDS011;9379;52.134;11.576;2023-04-15T02:46:51;2.53;;;1.92;;
18499;SDS011;9379;52.134;11.576;2023-04-15T02:52:56;2.55;;;2.35;;
18499;SDS011;9379;52.134;11.576;2023-04-15T02:56:18;2.40;;;2.17;;
18499;SDS011;9379;52.134;11.576;2023-04-15T02:59:19;2.38;;;1.75;;
18499;SDS011;9379;52.134;11.576;2023-04-15T03:02:36;2.10;;;1.90;;
18499;SDS011;9379;52.134;11.576;2023-04-15T03:18:54;1.33;;;1.23;;
18499;SDS011;9379;52.134;11.576;2023-04-15T03:22:12;2.40;;;2.25;;
18499;SDS011;9379;52.134;11.576;2023-04-15T03:25:32;1.80;;;1.50;;
18499;SDS011;9379;52.134;11.576;2023-04-15T03:28:24;2.30;;;2.10;;
18499;SDS011;9379;52.134;11.576;2023-04-15T03:34:12;2.00;;;1.80;;
18499;SDS011;9379;52.134;11.576;2023-04-15T03:37:07;1.70;;;1.60;;
18499;SDS011;9379;52.134;11.576;2023-04-15T03:40:54;1.30;;;1.20;;
18499;SDS011;9379;52.134;11.576;2023-04-15T03:44:01;1.38;;;1.27;;
18499;SDS011;9379;52.134;11.576;2023-04-15T03:53:46;2.10;;;1.90;;
18499;SDS011;9379;52.134;11.576;2023-04-15T03:56:32;1.77;;;1.67;;
18499;SDS011;9379;52.134;11.576;2023-04-15T03:59:46;2.80;;;1.73;;
18499;SDS011;9379;52.134;11.576;2023-04-15T04:02:52;2.00;;;1.83;;
18499;SDS011;9379;52.134;11.576;2023-04-15T06:55:31;3.33;;;2.97;;
18499;SDS011;9379;52.134;11.576;2023-04-15T06:57:58;3.42;;;2.97;;
18499;SDS011;9379;52.134;11.576;2023-04-15T07:00:24;2.40;;;2.20;;
18499;SDS011;9379;52.134;11.576;2023-04-15T07:02:52;3.22;;;2.92;;
18499;SDS011;9379;52.134;11.576;2023-04-15T07:05:19;3.30;;;3.00;;
18499;SDS011;9379;52.134;11.576;2023-04-15T07:07:46;3.47;;;3.13;;
18499;SDS011;9379;52.134;11.576;2023-04-15T07:10:13;4.57;;;3.67;;
18499;SDS011;9379;52.134;11.576;2023-04-15T07:12:41;6.63;;;3.45;;
18499;SDS011;9379;52.134;11.576;2023-04-15T07:15:08;4.63;;;3.58;;
18499;SDS011;9379;52.134;11.576;2023-04-15T07:17:36;4.30;;;3.60;;
18499;SDS011;9379;52.134;11.576;2023-04-15T07:20:03;3.50;;;3.20;;
18499;SDS011;9379;52.134;11.576;2023-04-15T07:22:30;2.60;;;2.40;;
18499;SDS011;9379;52.134;11.576;2023-04-15T07:24:57;4.35;;;3.95;;
18499;SDS011;9379;52.134;11.576;2023-04-15T07:27:24;8.40;;;6.45;;
18499;SDS011;9379;52.134;11.576;2023-04-15T07:29:52;6.43;;;5.72;;
18499;SDS011;9379;52.134;11.576;2023-04-15T07:32:19;5.38;;;4.63;;
18499;SDS011;9379;52.134;11.576;2023-04-15T07:34:46;6.10;;;5.47;;
18499;SDS011;9379;52.134;11.576;2023-04-15T07:37:13;6.00;;;5.13;;
18499;SDS011;9379;52.134;11.576;2023-04-15T07:39:40;8.32;;;5.03;;
18499;SDS011;9379;52.134;11.576;2023-04-15T07:42:09;7.75;;;5.10;;
18499;SDS011;9379;52.134;11.576;2023-04-15T07:44:36;7.82;;;6.10;;
18499;SDS011;9379;52.134;11.576;2023-04-15T07:47:04;6.47;;;5.18;;
18499;SDS011;9379;52.134;11.576;2023-04-15T07:49:31;10.43;;;8.25;;
18499;SDS011;9379;52.134;11.576;2023-04-15T07:51:58;8.90;;;7.30;;
18499;SDS011;9379;52.134;11.576;2023-04-15T07:54:25;8.95;;;7.53;;
18499;SDS011;9379;52.134;11.576;2023-04-15T07:56:52;6.15;;;5.55;;
18499;SDS011;9379;52.134;11.576;2023-04-15T07:59:20;7.60;;;6.68;;
18499;SDS011;9379;52.134;11.576;2023-04-15T08:01:47;9.85;;;7.93;;
18499;SDS011;9379;52.134;11.576;2023-04-15T08:04:15;9.43;;;6.05;;
18499;SDS011;9379;52.134;11.576;2023-04-15T08:06:42;11.10;;;6.97;;
18499;SDS011;9379;52.134;11.576;2023-04-15T08:09:09;10.00;;;8.82;;
18499;SDS011;9379;52.134;11.576;2023-04-15T08:11:36;9.43;;;7.05;;
18499;SDS011;9379;52.134;11.576;2023-04-15T08:14:03;10.32;;;7.15;;
18499;SDS011;9379;52.134;11.576;2023-04-15T08:16:30;13.05;;;8.13;;
18499;SDS011;9379;52.134;11.576;2023-04-15T08:18:56;8.63;;;7.63;;
18499;SDS011;9379;52.134;11.576;2023-04-15T08:21:25;10.95;;;9.77;;
18499;SDS011;9379;52.134;11.576;2023-04-15T08:23:55;12.52;;;9.00;;
18499;SDS011;9379;52.134;11.576;2023-04-15T08:26:22;14.70;;;9.63;;
18499;SDS011;9379;52.134;11.576;2023-04-15T08:28:49;16.90;;;12.45;;
18499;SDS011;9379;52.134;11.576;2023-04-15T08:31:16;14.68;;;10.65;;
18499;SDS011;9379;52.134;11.576;2023-04-15T08:33:44;14.98;;;12.35;;
18499;SDS011;9379;52.134;11.576;2023-04-15T08:36:11;16.63;;;12.68;;
18499;SDS011;9379;52.134;11.576;2023-04-15T08:38:40;15.52;;;12.05;;
18499;SDS011;9379;52.134;11.576;2023-04-15T08:41:10;14.07;;;11.25;;
18499;SDS011;9379;52.134;11.576;2023-04-15T08:43:45;17.10;;;12.02;;
18499;SDS011;9379;52.134;11.576;2023-04-15T08:46:17;15.32;;;10.60;;
18499;SDS011;9379;52.134;11.576;2023-04-15T08:48:45;16.90;;;11.48;;
18499;SDS011;9379;52.134;11.576;2023-04-15T08:51:14;17.05;;;11.93;;
18499;SDS011;9379;52.134;11.576;2023-04-15T08:53:47;16.85;;;11.82;;
18499;SDS011;9379;52.134;11.576;2023-04-15T08:56:15;13.02;;;9.85;;
18499;SDS011;9379;52.134;11.576;2023-04-15T08:58:44;15.20;;;11.98;;
18499;SDS011;9379;52.134;11.576;2023-04-15T09:01:12;13.25;;;10.65;;
18499;SDS011;9379;52.134;11.576;2023-04-15T09:03:39;14.15;;;11.38;;
18499;SDS011;9379;52.134;11.576;2023-04-15T09:06:07;16.27;;;12.73;;
18499;SDS011;9379;52.134;11.576;2023-04-15T09:08:35;16.85;;;12.15;;
18499;SDS011;9379;52.134;11.576;2023-04-15T09:11:03;23.23;;;13.68;;
18499;SDS011;9379;52.134;11.576;2023-04-15T09:13:30;17.20;;;12.75;;
18499;SDS011;9379;52.134;11.576;2023-04-15T09:15:57;20.38;;;13.65;;
18499;SDS011;9379;52.134;11.576;2023-04-15T09:18:28;30.30;;;18.77;;
18499;SDS011;9379;52.134;11.576;2023-04-15T09:20:55;24.38;;;16.33;;
18499;SDS011;9379;52.134;11.576;2023-04-15T09:23:30;20.48;;;15.90;;
18499;SDS011;9379;52.134;11.576;2023-04-15T09:25:58;19.88;;;15.63;;
18499;SDS011;9379;52.134;11.576;2023-04-15T09:28:27;22.70;;;15.70;;
18499;SDS011;9379;52.134;11.576;2023-04-15T09:30:54;18.88;;;12.88;;
18499;SDS011;9379;52.134;11.576;2023-04-15T09:33:22;17.02;;;12.30;;
18499;SDS011;9379;52.134;11.576;2023-04-15T09:35:59;19.58;;;13.02;;
18499;SDS011;9379;52.134;11.576;2023-04-15T09:38:28;18.05;;;12.23;;
18499;SDS011;9379;52.134;11.576;2023-04-15T09:40:56;14.13;;;12.48;;
18499;SDS011;9379;52.134;11.576;2023-04-15T09:43:37;12.85;;;11.50;;
18499;SDS011;9379;52.134;11.576;2023-04-15T09:46:05;14.65;;;12.40;;
18499;SDS011;9379;52.134;11.576;2023-04-15T09:48:32;13.93;;;11.55;;
18499;SDS011;9379;52.134;11.576;2023-04-15T09:50:59;12.10;;;10.77;;
18499;SDS011;9379;52.134;11.576;2023-04-15T09:53:27;15.27;;;13.10;;
18499;SDS011;9379;52.134;11.576;2023-04-15T09:55:55;17.70;;;13.55;;
18499;SDS011;9379;52.134;11.576;2023-04-15T09:58:24;15.88;;;12.02;;
18499;SDS011;9379;52.134;11.576;2023-04-15T10:00:53;18.02;;;12.25;;
18499;SDS011;9379;52.134;11.576;2023-04-15T10:03:22;14.68;;;12.05;;
18499;SDS011;9379;52.134;11.576;2023-04-15T10:05:51;18.05;;;13.85;;
18499;SDS011;9379;52.134;11.576;2023-04-15T10:08:20;15.15;;;12.60;;
18499;SDS011;9379;52.134;11.576;2023-04-15T10:10:49;17.30;;;12.82;;
18499;SDS011;9379;52.134;11.576;2023-04-15T10:13:17;15.68;;;14.07;;
18499;SDS011;9379;52.134;11.576;2023-04-15T10:15:49;17.88;;;13.35;;
18499;SDS011;9379;52.134;11.576;2023-04-15T10:18:19;15.80;;;10.68;;
18499;SDS011;9379;52.134;11.576;2023-04-15T10:20:49;18.70;;;13.00;;
18499;SDS011;9379;52.134;11.576;2023-04-15T10:23:16;18.75;;;14.20;;
18499;SDS011;9379;52.134;11.576;2023-04-15T10:25:44;15.23;;;12.43;;
18499;SDS011;9379;52.134;11.576;2023-04-15T10:28:11;15.27;;;12.15;;
18499;SDS011;9379;52.134;11.576;2023-04-15T10:30:40;13.85;;;12.07;;
18499;SDS011;9379;52.134;11.576;2023-04-15T10:33:12;14.00;;;11.38;;
18499;SDS011;9379;52.134;11.576;2023-04-15T10:35:45;13.60;;;10.88;;
18499;SDS011;9379;52.134;11.576;2023-04-15T10:38:34;18.77;;;13.05;;
18499;SDS011;9379;52.134;11.576;2023-04-15T10:41:15;17.00;;;13.07;;
18499;SDS011;9379;52.134;11.576;2023-04-15T10:43:50;13.15;;;11.80;;
18499;SDS011;9379;52.134;11.576;2023-04-15T10:46:22;14.20;;;11.93;;
18499;SDS011;9379;52.134;11.576;2023-04-15T10:49:05;14.68;;;11.95;;
18499;SDS011;9379;52.134;11.576;2023-04-15T10:51:34;44.55;;;14.63;;
18499;SDS011;9379;52.134;11.576;2023-04-15T10:54:07;13.02;;;11.68;;
18499;SDS011;9379;52.134;11.576;2023-04-15T10:56:36;18.30;;;14.10;;
18499;SDS011;9379;52.134;11.576;2023-04-15T10:59:04;14.77;;;12.07;;
18499;SDS011;9379;52.134;11.576;2023-04-15T11:01:50;14.48;;;12.27;;
18499;SDS011;9379;52.134;11.576;2023-04-15T11:20:50;12.80;;;10.63;;
18499;SDS011;9379;52.134;11.576;2023-04-15T11:23:28;15.75;;;13.63;;
18499;SDS011;9379;52.134;11.576;2023-04-15T11:26:02;12.82;;;11.50;;
18499;SDS011;9379;52.134;11.576;2023-04-15T11:31:15;16.73;;;12.88;;
18499;SDS011;9379;52.134;11.576;2023-04-15T11:34:07;13.52;;;11.52;;
18499;SDS011;9379;52.134;11.576;2023-04-15T11:36:57;35.10;;;13.07;;
18499;SDS011;9379;52.134;11.576;2023-04-15T11:39:43;16.27;;;12.52;;
18499;SDS011;9379;52.134;11.576;2023-04-15T11:42:18;17.27;;;13.52;;
18499;SDS011;9379;52.134;11.576;2023-04-15T11:45:07;16.55;;;12.43;;
18499;SDS011;9379;52.134;11.576;2023-04-15T11:47:40;15.07;;;13.20;;
18499;SDS011;9379;52.134;11.576;2023-04-15T11:50:16;13.77;;;11.55;;
18499;SDS011;9379;52.134;11.576;2023-04-15T11:52:56;11.85;;;10.55;;
18499;SDS011;9379;52.134;11.576;2023-04-15T11:55:46;13.65;;;11.18;;
18499;SDS011;9379;52.134;11.576;2023-04-15T11:58:21;12.82;;;10.32;;
18499;SDS011;9379;52.134;11.576;2023-04-15T12:00:53;14.48;;;12.88;;
18499;SDS011;9379;52.134;11.576;2023-04-15T12:03:25;13.60;;;11.18;;
18499;SDS011;9379;52.134;11.576;2023-04-15T12:06:07;13.43;;;9.88;;
18499;SDS011;9379;52.134;11.576;2023-04-15T12:08:57;13.43;;;10.80;;
18499;SDS011;9379;52.134;11.576;2023-04-15T12:11:46;17.40;;;14.60;;
18499;SDS011;9379;52.134;11.576;2023-04-15T12:14:23;14.55;;;12.35;;
18499;SDS011;9379;52.134;11.576;2023-04-15T12:17:05;15.75;;;13.50;;
18499;SDS011;9379;52.134;11.576;2023-04-15T12:19:37;19.85;;;12.80;;
18499;SDS011;9379;52.134;11.576;2023-04-15T12:22:10;12.45;;;11.20;;
18499;SDS011;9379;52.134;11.576;2023-04-15T12:24:56;13.32;;;11.75;;
18499;SDS011;9379;52.134;11.576;2023-04-15T12:27:26;11.45;;;10.25;;
18499;SDS011;9379;52.134;11.576;2023-04-15T12:30:07;9.98;;;8.93;;
18499;SDS011;9379;52.134;11.576;2023-04-15T12:32:51;12.90;;;11.25;;
18499;SDS011;9379;52.134;11.576;2023-04-15T12:35:22;15.02;;;11.55;;
18499;SDS011;9379;52.134;11.576;2023-04-15T12:37:59;12.40;;;10.93;;
18499;SDS011;9379;52.134;11.576;2023-04-15T12:40:39;13.60;;;12.20;;
18499;SDS011;9379;52.134;11.576;2023-04-15T12:43:15;12.60;;;10.88;;
18499;SDS011;9379;52.134;11.576;2023-04-15T12:45:45;13.00;;;10.25;;
18499;SDS011;9379;52.134;11.576;2023-04-15T12:48:17;10.07;;;9.02;;
18499;SDS011;9379;52.134;11.576;2023-04-15T12:50:52;10.38;;;9.40;;
18499;SDS011;9379;52.134;11.576;2023-04-15T12:53:25;15.95;;;12.57;;
18499;SDS011;9379;52.134;11.576;2023-04-15T12:55:57;12.80;;;10.80;;
18499;SDS011;9379;52.134;11.576;2023-04-15T12:58:29;11.35;;;9.80;;
18499;SDS011;9379;52.134;11.576;2023-04-15T13:01:00;12.13;;;10.82;;
18499;SDS011;9379;52.134;11.576;2023-04-15T13:03:32;13.75;;;12.35;;
18499;SDS011;9379;52.134;11.576;2023-04-15T13:06:06;12.38;;;10.52;;
18499;SDS011;9379;52.134;11.576;2023-04-15T13:08:36;10.43;;;9.43;;
18499;SDS011;9379;52.134;11.576;2023-04-15T13:11:13;12.32;;;9.85;;
18499;SDS011;9379;52.134;11.576;2023-04-15T13:13:57;11.23;;;9.23;;
18499;SDS011;9379;52.134;11.576;2023-04-15T13:16:30;9.18;;;7.85;;
18499;SDS011;9379;52.134;11.576;2023-04-15T13:19:06;14.13;;;11.10;;
18499;SDS011;9379;52.134;11.576;2023-04-15T13:21:35;10.88;;;9.82;;
18499;SDS011;9379;52.134;11.576;2023-04-15T13:24:19;10.27;;;9.10;;
18499;SDS011;9379;52.134;11.576;2023-04-15T13:26:49;10.55;;;9.57;;
18499;SDS011;9379;52.134;11.576;2023-04-15T13:29:23;12.48;;;10.93;;
18499;SDS011;9379;52.134;11.576;2023-04-15T13:31:56;16.23;;;11.55;;
18499;SDS011;9379;52.134;11.576;2023-04-15T13:34:26;12.13;;;10.55;;
18499;SDS011;9379;52.134;11.576;2023-04-15T13:36:56;9.35;;;8.45;;
18499;SDS011;9379;52.134;11.576;2023-04-15T13:39:27;12.20;;;9.48;;
18499;SDS011;9379;52.134;11.576;2023-04-15T13:42:02;10.88;;;9.82;;
18499;SDS011;9379;52.134;11.576;2023-04-15T13:44:38;11.80;;;10.60;;
18499;SDS011;9379;52.134;11.576;2023-04-15T13:47:12;14.00;;;12.60;;
18499;SDS011;9379;52.134;11.576;2023-04-15T13:49:49;12.55;;;11.27;;
18499;SDS011;9379;52.134;11.576;2023-04-15T13:52:21;11.52;;;10.32;;
18499;SDS011;9379;52.134;11.576;2023-04-15T13:54:55;13.73;;;12.07;;
18499;SDS011;9379;52.134;11.576;2023-04-15T13:57:40;19.02;;;14.68;;
18499;SDS011;9379;52.134;11.576;2023-04-15T14:00:18;21.27;;;13.25;;
18499;SDS011;9379;52.134;11.576;2023-04-15T14:02:52;12.27;;;11.05;;
18499;SDS011;9379;52.134;11.576;2023-04-15T14:05:23;11.68;;;10.68;;
18499;SDS011;9379;52.134;11.576;2023-04-15T14:07:51;9.82;;;8.82;;
18499;SDS011;9379;52.134;11.576;2023-04-15T14:10:19;12.70;;;10.93;;
18499;SDS011;9379;52.134;11.576;2023-04-15T14:12:58;12.25;;;10.80;;
18499;SDS011;9379;52.134;11.576;2023-04-15T14:15:25;10.25;;;9.25;;
18499;SDS011;9379;52.134;11.576;2023-04-15T14:17:52;16.02;;;13.60;;
18499;SDS011;9379;52.134;11.576;2023-04-15T14:22:59;13.70;;;11.85;;
18499;SDS011;9379;52.134;11.576;2023-04-15T14:25:32;15.32;;;12.35;;
18499;SDS011;9379;52.134;11.576;2023-04-15T14:31:05;9.88;;;8.98;;
18499;SDS011;9379;52.134;11.576;2023-04-15T14:33:41;16.02;;;14.13;;
18499;SDS011;9379;52.134;11.576;2023-04-15T14:36:16;12.77;;;11.45;;
18499;SDS011;9379;52.134;11.576;2023-04-15T14:38:52;13.20;;;10.82;;
18499;SDS011;9379;52.134;11.576;2023-04-15T14:41:22;11.60;;;9.98;;
18499;SDS011;9379;52.134;11.576;2023-04-15T14:44:08;13.10;;;11.65;;
18499;SDS011;9379;52.134;11.576;2023-04-15T14:46:47;13.80;;;11.10;;
18499;SDS011;9379;52.134;11.576;2023-04-15T14:49:15;16.00;;;13.60;;
18499;SDS011;9379;52.134;11.576;2023-04-15T14:51:42;14.85;;;11.73;;
18499;SDS011;9379;52.134;11.576;2023-04-15T14:54:10;13.93;;;12.45;;
18499;SDS011;9379;52.134;11.576;2023-04-15T14:56:58;16.58;;;12.52;;
18499;SDS011;9379;52.134;11.576;2023-04-15T14:59:35;12.73;;;10.77;;
18499;SDS011;9379;52.134;11.576;2023-04-15T15:02:04;15.30;;;13.23;;
18499;SDS011;9379;52.134;11.576;2023-04-15T15:04:44;11.70;;;10.38;;
18499;SDS011;9379;52.134;11.576;2023-04-15T15:07:21;12.52;;;11.10;;
18499;SDS011;9379;52.134;11.576;2023-04-15T15:09:55;13.15;;;11.73;;
18499;SDS011;9379;52.134;11.576;2023-04-15T15:12:34;13.50;;;12.13;;
18499;SDS011;9379;52.134;11.576;2023-04-15T15:15:20;12.43;;;9.05;;
18499;SDS011;9379;52.134;11.576;2023-04-15T15:18:00;13.18;;;11.35;;
18499;SDS011;9379;52.134;11.576;2023-04-15T15:20:41;13.88;;;12.50;;
18499;SDS011;9379;52.134;11.576;2023-04-15T15:23:11;11.25;;;10.13;;
18499;SDS011;9379;52.134;11.576;2023-04-15T15:26:05;14.38;;;12.23;;
18499;SDS011;9379;52.134;11.576;2023-04-15T15:28:43;12.23;;;10.93;;
18499;SDS011;9379;52.134;11.576;2023-04-15T15:34:48;12.48;;;11.18;;
18499;SDS011;9379;52.134;11.576;2023-04-15T15:37:31;14.20;;;12.45;;
18499;SDS011;9379;52.134;11.576;2023-04-15T15:40:09;15.18;;;12.60;;
18499;SDS011;9379;52.134;11.576;2023-04-15T15:42:43;15.30;;;13.13;;
18499;SDS011;9379;52.134;11.576;2023-04-15T15:45:18;15.65;;;11.15;;
18499;SDS011;9379;52.134;11.576;2023-04-15T15:48:08;12.23;;;10.55;;
18499;SDS011;9379;52.134;11.576;2023-04-15T15:51:04;10.98;;;9.60;;
18499;SDS011;9379;52.134;11.576;2023-04-15T15:53:51;12.45;;;11.15;;
18499;SDS011;9379;52.134;11.576;2023-04-15T15:56:34;13.60;;;10.38;;
18499;SDS011;9379;52.134;11.576;2023-04-15T15:59:10;11.27;;;10.07;;
18499;SDS011;9379;52.134;11.576;2023-04-15T16:01:39;12.02;;;10.23;;
18499;SDS011;9379;52.134;11.576;2023-04-15T16:04:17;10.30;;;9.32;;
18499;SDS011;9379;52.134;11.576;2023-04-15T16:06:50;9.93;;;8.93;;
18499;SDS011;9379;52.134;11.576;2023-04-15T16:09:19;12.65;;;10.23;;
18499;SDS011;9379;52.134;11.576;2023-04-15T16:11:51;10.13;;;9.13;;
18499;SDS011;9379;52.134;11.576;2023-04-15T16:14:43;12.10;;;10.35;;
18499;SDS011;9379;52.134;11.576;2023-04-15T16:17:19;14.18;;;11.88;;
18499;SDS011;9379;52.134;11.576;2023-04-15T16:19:51;11.32;;;10.23;;
18499;SDS011;9379;52.134;11.576;2023-04-15T16:22:46;15.07;;;13.18;;
18499;SDS011;9379;52.134;11.576;2023-04-15T16:25:22;14.02;;;12.63;;
18499;SDS011;9379;52.134;11.576;2023-04-15T16:27:54;14.77;;;11.25;;
18499;SDS011;9379;52.134;11.576;2023-04-15T16:30:25;15.00;;;10.10;;
18499;SDS011;9379;52.134;11.576;2023-04-15T16:33:05;14.57;;;10.23;;
18499;SDS011;9379;52.134;11.576;2023-04-15T16:35:47;10.68;;;9.25;;
18499;SDS011;9379;52.134;11.576;2023-04-15T16:38:26;10.35;;;8.90;;
18499;SDS011;9379;52.134;11.576;2023-04-15T16:41:15;15.90;;;14.15;;
18499;SDS011;9379;52.134;11.576;2023-04-15T16:44:01;13.32;;;10.10;;
18499;SDS011;9379;52.134;11.576;2023-04-15T16:46:39;11.30;;;10.13;;
18499;SDS011;9379;52.134;11.576;2023-04-15T16:49:21;11.10;;;9.90;;
18499;SDS011;9379;52.134;11.576;2023-04-15T16:52:12;13.38;;;11.98;;
18499;SDS011;9379;52.134;11.576;2023-04-15T16:54:49;11.27;;;10.18;;
18499;SDS011;9379;52.134;11.576;2023-04-15T16:57:31;13.90;;;12.05;;
18499;SDS011;9379;52.134;11.576;2023-04-15T17:00:05;11.02;;;9.68;;
18499;SDS011;9379;52.134;11.576;2023-04-15T17:02:36;12.40;;;11.00;;
18499;SDS011;9379;52.134;11.576;2023-04-15T17:05:20;13.85;;;12.30;;
18499;SDS011;9379;52.134;11.576;2023-04-15T17:07:57;12.23;;;10.68;;
18499;SDS011;9379;52.134;11.576;2023-04-15T17:10:34;9.07;;;8.20;;
18499;SDS011;9379;52.134;11.576;2023-04-15T17:13:07;12.57;;;11.32;;
18499;SDS011;9379;52.134;11.576;2023-04-15T17:15:59;12.02;;;10.80;;
18499;SDS011;9379;52.134;11.576;2023-04-15T17:18:27;10.40;;;8.93;;
18499;SDS011;9379;52.134;11.576;2023-04-15T17:20:57;8.55;;;7.68;;
18499;SDS011;9379;52.134;11.576;2023-04-15T17:23:34;8.90;;;8.00;;
18499;SDS011;9379;52.134;11.576;2023-04-15T17:26:09;10.38;;;8.90;;
18499;SDS011;9379;52.134;11.576;2023-04-15T17:28:40;9.32;;;8.38;;
18499;SDS011;9379;52.134;11.576;2023-04-15T17:31:19;8.35;;;7.18;;
18499;SDS011;9379;52.134;11.576;2023-04-15T17:33:46;10.40;;;8.77;;
18499;SDS011;9379;52.134;11.576;2023-04-15T17:36:15;8.45;;;7.65;;
18499;SDS011;9379;52.134;11.576;2023-04-15T17:38:46;12.00;;;9.73;;
18499;SDS011;9379;52.134;11.576;2023-04-15T17:41:27;11.55;;;9.57;;
18499;SDS011;9379;52.134;11.576;2023-04-15T17:43:57;10.63;;;9.05;;
18499;SDS011;9379;52.134;11.576;2023-04-15T17:46:24;10.15;;;9.15;;
18499;SDS011;9379;52.134;11.576;2023-04-15T17:48:55;9.80;;;8.63;;
18499;SDS011;9379;52.134;11.576;2023-04-15T17:51:28;10.25;;;9.23;;
18499;SDS011;9379;52.134;11.576;2023-04-15T17:54:03;10.48;;;9.07;;
18499;SDS011;9379;52.134;11.576;2023-04-15T17:57:00;12.65;;;9.48;;
18499;SDS011;9379;52.134;11.576;2023-04-15T17:59:41;11.88;;;10.68;;
18499;SDS011;9379;52.134;11.576;2023-04-15T18:02:11;13.90;;;8.32;;
18499;SDS011;9379;52.134;11.576;2023-04-15T18:04:55;10.90;;;9.85;;
18499;SDS011;9379;52.134;11.576;2023-04-15T18:07:33;11.23;;;9.20;;
18499;SDS011;9379;52.134;11.576;2023-04-15T18:10:27;9.45;;;8.18;;
18499;SDS011;9379;52.134;11.576;2023-04-15T18:13:31;12.02;;;8.25;;
18499;SDS011;9379;52.134;11.576;2023-04-15T18:23:29;13.25;;;10.27;;
18499;SDS011;9379;52.134;11.576;2023-04-15T18:26:38;9.15;;;8.23;;
18499;SDS011;9379;52.134;11.576;2023-04-15T18:38:36;10.98;;;9.48;;
18499;SDS011;9379;52.134;11.576;2023-04-15T18:41:52;8.80;;;7.90;;
18499;SDS011;9379;52.134;11.576;2023-04-15T18:44:53;10.68;;;8.50;;
18499;SDS011;9379;52.134;11.576;2023-04-15T18:47:45;8.60;;;7.80;;
18499;SDS011;9379;52.134;11.576;2023-04-15T18:50:31;10.52;;;8.68;;
18499;SDS011;9379;52.134;11.576;2023-04-15T18:53:04;10.48;;;8.40;;
18499;SDS011;9379;52.134;11.576;2023-04-15T18:55:43;9.55;;;8.50;;
18499;SDS011;9379;52.134;11.576;2023-04-15T18:58:22;8.48;;;7.57;;
18499;SDS011;9379;52.134;11.576;2023-04-15T19:00:56;9.43;;;8.52;;
18499;SDS011;9379;52.134;11.576;2023-04-15T19:03:46;11.38;;;9.13;;
18499;SDS011;9379;52.134;11.576;2023-04-15T19:06:31;13.07;;;10.73;;
18499;SDS011;9379;52.134;11.576;2023-04-15T19:09:12;10.77;;;9.70;;
18499;SDS011;9379;52.134;11.576;2023-04-15T19:11:42;9.13;;;8.23;;
18499;SDS011;9379;52.134;11.576;2023-04-15T19:14:25;11.30;;;9.13;;
18499;SDS011;9379;52.134;11.576;2023-04-15T19:17:13;10.27;;;8.27;;
18499;SDS011;9379;52.134;11.576;2023-04-15T19:20:00;10.93;;;9.52;;
18499;SDS011;9379;52.134;11.576;2023-04-15T19:22:38;11.35;;;9.70;;
18499;SDS011;9379;52.134;11.576;2023-04-15T19:25:10;13.45;;;10.35;;
18499;SDS011;9379;52.134;11.576;2023-04-15T19:27:42;9.13;;;8.23;;
18499;SDS011;9379;52.134;11.576;2023-04-15T19:30:17;8.32;;;7.53;;
18499;SDS011;9379;52.134;11.576;2023-04-15T19:32:58;10.23;;;8.93;;
18499;SDS011;9379;52.134;11.576;2023-04-15T19:35:39;7.63;;;6.93;;
18499;SDS011;9379;52.134;11.576;2023-04-15T19:38:13;8.77;;;7.97;;
18499;SDS011;9379;52.134;11.576;2023-04-15T19:40:48;7.30;;;6.60;;
18499;SDS011;9379;52.134;11.576;2023-04-15T19:43:16;13.30;;;11.85;;
18499;SDS011;9379;52.134;11.576;2023-04-15T19:45:49;11.35;;;8.30;;
18499;SDS011;9379;52.134;11.576;2023-04-15T19:48:33;8.88;;;7.63;;
18499;SDS011;9379;52.134;11.576;2023-04-15T19:51:09;8.75;;;7.30;;
18499;SDS011;9379;52.134;11.576;2023-04-15T19:54:10;9.27;;;8.38;;